sensor_id;sensor_type;location;lat;lon;timestamp;pressure;altitude;pressure_sealevel;temperature;humidity
58018;BME280;43810;50.860;19.226;2023-04-01T00:00:55;96814.09;;;7.36;84.94
58018;BME280;43810;50.860;19.226;2023-04-01T00:03:22;96817.53;;;7.17;85.09
58018;BME280;43810;50.860;19.226;2023-04-01T00:05:49;96809.97;;;6.97;85.74
58018;BME280;43810;50.860;19.226;2023-04-01T00:08:15;96801.19;;;6.93;86.71
58018;BME280;43810;50.860;19.226;2023-04-01T00:10:42;96806.41;;;6.89;86.53
58018;BME280;43810;50.860;19.226;2023-04-01T00:13:08;96794.56;;;6.83;86.66
58018;BME280;43810;50.860;19.226;2023-04-01T00:15:34;96798.19;;;6.75;86.54
58018;BME280;43810;50.860;19.226;2023-04-01T00:18:01;96796.66;;;6.74;86.51
58018;BME280;43810;50.860;19.226;2023-04-01T00:20:28;96818.59;;;6.78;86.72
58018;BME280;43810;50.860;19.226;2023-04-01T00:22:54;96804.91;;;6.72;86.58
58018;BME280;43810;50.860;19.226;2023-04-01T00:25:21;96805.88;;;6.64;87.02
58018;BME280;43810;50.860;19.226;2023-04-01T00:27:47;96807.59;;;6.57;87.31
58018;BME280;43810;50.860;19.226;2023-04-01T00:30:13;96811.22;;;6.68;87.74
58018;BME280;43810;50.860;19.226;2023-04-01T00:32:40;96809.34;;;6.68;87.65
58018;BME280;43810;50.860;19.226;2023-04-01T00:35:06;96807.97;;;6.74;87.47
58018;BME280;43810;50.860;19.226;2023-04-01T00:37:34;96802.16;;;6.85;87.45
58018;BME280;43810;50.860;19.226;2023-04-01T00:40:00;96800.84;;;6.94;87.45
58018;BME280;43810;50.860;19.226;2023-04-01T00:42:26;96811.56;;;7.01;87.71
58018;BME280;43810;50.860;19.226;2023-04-01T00:44:53;96812.13;;;7.10;87.74
58018;BME280;43810;50.860;19.226;2023-04-01T00:47:21;96807.06;;;7.21;87.11
58018;BME280;43810;50.860;19.226;2023-04-01T00:49:50;96812.25;;;7.17;87.28
58018;BME280;43810;50.860;19.226;2023-04-01T00:52:19;96804.00;;;7.19;87.20
58018;BME280;43810;50.860;19.226;2023-04-01T00:54:48;96812.94;;;7.34;86.85
58018;BME280;43810;50.860;19.226;2023-04-01T00:57:22;96816.81;;;7.40;86.85
58018;BME280;43810;50.860;19.226;2023-04-01T00:59:52;96809.38;;;7.26;86.78
58018;BME280;43810;50.860;19.226;2023-04-01T01:02:20;96795.91;;;7.31;86.69
58018;BME280;43810;50.860;19.226;2023-04-01T01:04:46;96813.75;;;7.38;86.89
58018;BME280;43810;50.860;19.226;2023-04-01T01:10:05;96806.94;;;7.56;86.36
58018;BME280;43810;50.860;19.226;2023-04-01T01:12:44;96795.34;;;7.41;85.89
58018;BME280;43810;50.860;19.226;2023-04-01T01:26:29;96799.97;;;7.48;86.21
58018;BME280;43810;50.860;19.226;2023-04-01T01:29:03;96805.25;;;7.48;86.05
58018;BME280;43810;50.860;19.226;2023-04-01T01:31:57;96803.88;;;7.54;85.95
58018;BME280;43810;50.860;19.226;2023-04-01T01:37:17;96808.16;;;7.62;85.64
58018;BME280;43810;50.860;19.226;2023-04-01T01:39:50;96807.66;;;7.76;84.89
58018;BME280;43810;50.860;19.226;2023-04-01T01:42:22;96806.53;;;7.77;85.28
58018;BME280;43810;50.860;19.226;2023-04-01T01:44:50;96804.94;;;7.72;85.17
58018;BME280;43810;50.860;19.226;2023-04-01T01:47:17;96809.53;;;7.75;84.97
58018;BME280;43810;50.860;19.226;2023-04-01T01:49:44;96800.47;;;7.76;85.02
58018;BME280;43810;50.860;19.226;2023-04-01T01:52:12;96795.44;;;7.68;84.98
58018;BME280;43810;50.860;19.226;2023-04-01T01:55:30;96798.00;;;7.64;85.73
58018;BME280;43810;50.860;19.226;2023-04-01T01:58:01;96808.59;;;7.64;85.28
58018;BME280;43810;50.860;19.226;2023-04-01T02:00:28;96797.69;;;7.69;85.56
58018;BME280;43810;50.860;19.226;2023-04-01T02:02:54;96803.41;;;7.71;85.16
58018;BME280;43810;50.860;19.226;2023-04-01T02:05:24;96798.06;;;7.68;85.62
58018;BME280;43810;50.860;19.226;2023-04-01T02:08:13;96798.69;;;7.61;85.66
58018;BME280;43810;50.860;19.226;2023-04-01T02:10:45;96788.81;;;7.58;86.16
58018;BME280;43810;50.860;19.226;2023-04-01T02:13:18;96793.56;;;7.68;85.12
58018;BME280;43810;50.860;19.226;2023-04-01T02:15:48;96794.53;;;7.60;85.58
58018;BME280;43810;50.860;19.226;2023-04-01T02:18:18;96795.94;;;7.54;85.69
58018;BME280;43810;50.860;19.226;2023-04-01T02:20:45;96796.66;;;7.51;86.27
58018;BME280;43810;50.860;19.226;2023-04-01T02:23:11;96796.38;;;7.56;85.95
58018;BME280;43810;50.860;19.226;2023-04-01T02:25:39;96791.00;;;7.52;85.89
58018;BME280;43810;50.860;19.226;2023-04-01T02:28:07;96785.19;;;7.43;86.02
58018;BME280;43810;50.860;19.226;2023-04-01T02:30:36;96778.03;;;7.44;86.34
58018;BME280;43810;50.860;19.226;2023-04-01T02:33:06;96792.28;;;7.39;86.33
58018;BME280;43810;50.860;19.226;2023-04-01T02:35:35;96794.56;;;7.41;86.56
58018;BME280;43810;50.860;19.226;2023-04-01T02:38:02;96797.97;;;7.41;86.48
58018;BME280;43810;50.860;19.226;2023-04-01T02:40:28;96802.03;;;7.58;86.10
58018;BME280;43810;50.860;19.226;2023-04-01T02:42:54;96797.91;;;7.57;85.64
58018;BME280;43810;50.860;19.226;2023-04-01T02:45:20;96800.22;;;7.62;85.54
58018;BME280;43810;50.860;19.226;2023-04-01T02:47:46;96800.91;;;7.78;85.36
58018;BME280;43810;50.860;19.226;2023-04-01T02:50:12;96808.00;;;7.74;85.09
58018;BME280;43810;50.860;19.226;2023-04-01T02:52:38;96809.09;;;7.73;85.25
58018;BME280;43810;50.860;19.226;2023-04-01T02:55:05;96813.22;;;7.71;85.28
58018;BME280;43810;50.860;19.226;2023-04-01T02:57:31;96813.88;;;7.64;85.04
58018;BME280;43810;50.860;19.226;2023-04-01T02:59:57;96814.44;;;7.35;85.59
58018;BME280;43810;50.860;19.226;2023-04-01T03:02:23;96817.09;;;7.35;86.31
58018;BME280;43810;50.860;19.226;2023-04-01T03:04:49;96818.00;;;7.42;85.79
58018;BME280;43810;50.860;19.226;2023-04-01T03:07:15;96808.97;;;7.43;86.25
58018;BME280;43810;50.860;19.226;2023-04-01T03:09:41;96814.38;;;7.50;85.63
58018;BME280;43810;50.860;19.226;2023-04-01T03:12:06;96817.00;;;7.50;86.14
58018;BME280;43810;50.860;19.226;2023-04-01T03:14:32;96825.81;;;7.58;86.50
58018;BME280;43810;50.860;19.226;2023-04-01T03:16:58;96827.78;;;7.61;86.04
58018;BME280;43810;50.860;19.226;2023-04-01T03:19:24;96817.16;;;7.58;86.62
58018;BME280;43810;50.860;19.226;2023-04-01T03:21:50;96812.75;;;7.65;86.42
58018;BME280;43810;50.860;19.226;2023-04-01T03:24:16;96823.25;;;7.62;86.50
58018;BME280;43810;50.860;19.226;2023-04-01T03:26:41;96825.31;;;7.72;86.10
58018;BME280;43810;50.860;19.226;2023-04-01T03:29:08;96826.16;;;7.76;86.12
58018;BME280;43810;50.860;19.226;2023-04-01T03:31:33;96822.56;;;7.87;85.71
58018;BME280;43810;50.860;19.226;2023-04-01T03:34:00;96823.69;;;7.86;85.56
58018;BME280;43810;50.860;19.226;2023-04-01T03:36:25;96830.50;;;7.87;85.72
58018;BME280;43810;50.860;19.226;2023-04-01T03:38:51;96822.81;;;7.79;86.01
58018;BME280;43810;50.860;19.226;2023-04-01T03:41:17;96829.56;;;7.76;86.24
58018;BME280;43810;50.860;19.226;2023-04-01T03:43:44;96833.03;;;7.80;86.57
58018;BME280;43810;50.860;19.226;2023-04-01T03:46:10;96839.44;;;7.79;86.75
58018;BME280;43810;50.860;19.226;2023-04-01T03:48:36;96833.03;;;7.80;86.42
58018;BME280;43810;50.860;19.226;2023-04-01T03:51:06;96836.03;;;7.79;86.53
58018;BME280;43810;50.860;19.226;2023-04-01T03:53:32;96840.47;;;7.75;87.09
58018;BME280;43810;50.860;19.226;2023-04-01T03:55:58;96845.06;;;7.78;86.69
58018;BME280;43810;50.860;19.226;2023-04-01T03:58:24;96851.06;;;7.75;86.58
58018;BME280;43810;50.860;19.226;2023-04-01T04:00:50;96842.84;;;7.80;86.81
58018;BME280;43810;50.860;19.226;2023-04-01T04:03:16;96845.84;;;7.78;86.41
58018;BME280;43810;50.860;19.226;2023-04-01T04:05:51;96849.28;;;7.82;86.82
58018;BME280;43810;50.860;19.226;2023-04-01T04:08:17;96848.19;;;7.83;86.67
58018;BME280;43810;50.860;19.226;2023-04-01T04:10:43;96850.72;;;7.76;86.76
58018;BME280;43810;50.860;19.226;2023-04-01T04:13:09;96849.41;;;7.67;86.67
58018;BME280;43810;50.860;19.226;2023-04-01T04:15:35;96851.41;;;7.73;86.74
58018;BME280;43810;50.860;19.226;2023-04-01T04:18:01;96849.75;;;7.65;86.77
58018;BME280;43810;50.860;19.226;2023-04-01T04:20:27;96844.88;;;7.67;87.13
58018;BME280;43810;50.860;19.226;2023-04-01T04:22:53;96850.75;;;7.57;87.17
58018;BME280;43810;50.860;19.226;2023-04-01T04:25:19;96848.56;;;7.63;87.10
58018;BME280;43810;50.860;19.226;2023-04-01T04:27:45;96845.84;;;7.59;87.38
58018;BME280;43810;50.860;19.226;2023-04-01T04:30:11;96840.94;;;7.58;87.13
58018;BME280;43810;50.860;19.226;2023-04-01T04:32:37;96853.41;;;7.57;87.31
58018;BME280;43810;50.860;19.226;2023-04-01T04:35:03;96849.88;;;7.72;87.26
58018;BME280;43810;50.860;19.226;2023-04-01T04:37:29;96848.59;;;7.85;86.99
58018;BME280;43810;50.860;19.226;2023-04-01T04:39:55;96848.19;;;7.83;86.74
58018;BME280;43810;50.860;19.226;2023-04-01T04:42:21;96848.44;;;7.98;86.63
58018;BME280;43810;50.860;19.226;2023-04-01T04:44:47;96846.44;;;7.91;86.82
58018;BME280;43810;50.860;19.226;2023-04-01T04:47:13;96843.22;;;8.01;86.81
58018;BME280;43810;50.860;19.226;2023-04-01T04:49:39;96847.75;;;8.04;86.78
58018;BME280;43810;50.860;19.226;2023-04-01T04:52:05;96853.81;;;8.05;86.58
58018;BME280;43810;50.860;19.226;2023-04-01T04:54:31;96855.47;;;8.13;86.37
58018;BME280;43810;50.860;19.226;2023-04-01T04:56:57;96857.59;;;8.04;86.64
58018;BME280;43810;50.860;19.226;2023-04-01T04:59:23;96854.13;;;8.00;86.81
58018;BME280;43810;50.860;19.226;2023-04-01T05:01:49;96856.72;;;7.96;87.38
58018;BME280;43810;50.860;19.226;2023-04-01T05:04:15;96858.41;;;8.08;86.93
58018;BME280;43810;50.860;19.226;2023-04-01T05:06:43;96858.47;;;8.11;86.55
58018;BME280;43810;50.860;19.226;2023-04-01T05:09:09;96862.53;;;8.05;86.81
58018;BME280;43810;50.860;19.226;2023-04-01T05:11:36;96848.91;;;8.03;87.05
58018;BME280;43810;50.860;19.226;2023-04-01T05:14:01;96853.78;;;8.01;87.26
58018;BME280;43810;50.860;19.226;2023-04-01T05:16:27;96856.59;;;8.12;86.98
58018;BME280;43810;50.860;19.226;2023-04-01T05:18:53;96860.13;;;8.19;86.81
58018;BME280;43810;50.860;19.226;2023-04-01T05:21:19;96856.25;;;8.13;86.57
58018;BME280;43810;50.860;19.226;2023-04-01T05:23:45;96853.47;;;8.29;86.55
58018;BME280;43810;50.860;19.226;2023-04-01T05:26:14;96863.84;;;8.41;86.27
58018;BME280;43810;50.860;19.226;2023-04-01T05:28:40;96852.16;;;8.42;86.14
58018;BME280;43810;50.860;19.226;2023-04-01T05:31:07;96858.72;;;8.52;86.26
58018;BME280;43810;50.860;19.226;2023-04-01T05:33:33;96854.66;;;8.58;86.27
58018;BME280;43810;50.860;19.226;2023-04-01T05:36:19;96849.75;;;8.86;86.00
58018;BME280;43810;50.860;19.226;2023-04-01T05:38:45;96851.16;;;9.07;85.24
58018;BME280;43810;50.860;19.226;2023-04-01T05:41:14;96850.03;;;9.38;84.69
58018;BME280;43810;50.860;19.226;2023-04-01T05:43:41;96860.47;;;9.57;83.57
58018;BME280;43810;50.860;19.226;2023-04-01T05:46:08;96854.84;;;9.62;83.29
58018;BME280;43810;50.860;19.226;2023-04-01T05:48:34;96860.69;;;9.75;82.52
58018;BME280;43810;50.860;19.226;2023-04-01T05:51:01;96860.59;;;9.67;82.56
58018;BME280;43810;50.860;19.226;2023-04-01T05:53:27;96855.56;;;9.59;82.44
58018;BME280;43810;50.860;19.226;2023-04-01T05:55:53;96855.97;;;9.61;83.09
58018;BME280;43810;50.860;19.226;2023-04-01T05:58:19;96861.50;;;9.82;82.76
58018;BME280;43810;50.860;19.226;2023-04-01T06:00:45;96856.91;;;9.79;82.78
58018;BME280;43810;50.860;19.226;2023-04-01T06:03:10;96850.94;;;9.86;83.69
58018;BME280;43810;50.860;19.226;2023-04-01T06:05:41;96858.28;;;10.03;82.22
58018;BME280;43810;50.860;19.226;2023-04-01T06:08:16;96861.84;;;10.21;82.00
58018;BME280;43810;50.860;19.226;2023-04-01T06:16:04;96861.09;;;10.21;82.21
58018;BME280;43810;50.860;19.226;2023-04-01T06:27:49;96867.03;;;10.07;82.05
58018;BME280;43810;50.860;19.226;2023-04-01T06:43:31;96871.94;;;9.64;85.67
58018;BME280;43810;50.860;19.226;2023-04-01T06:46:11;96862.47;;;9.67;85.54
58018;BME280;43810;50.860;19.226;2023-04-01T06:54:31;96874.97;;;9.66;85.96
58018;BME280;43810;50.860;19.226;2023-04-01T06:57:03;96873.47;;;9.69;86.00
58018;BME280;43810;50.860;19.226;2023-04-01T06:59:37;96882.97;;;9.70;86.17
58018;BME280;43810;50.860;19.226;2023-04-01T07:02:34;96886.09;;;9.79;86.07
58018;BME280;43810;50.860;19.226;2023-04-01T07:05:04;96877.41;;;9.82;86.01
58018;BME280;43810;50.860;19.226;2023-04-01T07:07:34;96883.88;;;9.85;85.41
58018;BME280;43810;50.860;19.226;2023-04-01T07:10:05;96886.09;;;9.79;85.77
58018;BME280;43810;50.860;19.226;2023-04-01T07:15:04;96883.00;;;10.11;84.83
58018;BME280;43810;50.860;19.226;2023-04-01T07:17:39;96879.94;;;10.08;84.95
58018;BME280;43810;50.860;19.226;2023-04-01T07:20:22;96889.38;;;10.06;84.58
58018;BME280;43810;50.860;19.226;2023-04-01T07:22:52;96885.56;;;10.03;84.92
58018;BME280;43810;50.860;19.226;2023-04-01T07:25:33;96887.13;;;10.08;85.29
58018;BME280;43810;50.860;19.226;2023-04-01T07:28:04;96891.38;;;10.16;84.82
58018;BME280;43810;50.860;19.226;2023-04-01T07:30:51;96891.38;;;10.16;84.87
58018;BME280;43810;50.860;19.226;2023-04-01T07:41:54;96892.31;;;10.38;83.64
58018;BME280;43810;50.860;19.226;2023-04-01T07:47:17;96899.06;;;10.28;83.91
58018;BME280;43810;50.860;19.226;2023-04-01T07:56:18;96902.31;;;10.55;83.72
58018;BME280;43810;50.860;19.226;2023-04-01T07:59:07;96903.94;;;10.70;83.43
58018;BME280;43810;50.860;19.226;2023-04-01T08:02:24;96908.56;;;10.77;83.29
58018;BME280;43810;50.860;19.226;2023-04-01T08:07:45;96906.47;;;11.07;82.72
58018;BME280;43810;50.860;19.226;2023-04-01T08:20:59;96908.59;;;10.80;82.17
58018;BME280;43810;50.860;19.226;2023-04-01T08:23:30;96913.47;;;10.75;82.97
58018;BME280;43810;50.860;19.226;2023-04-01T08:26:01;96908.16;;;10.75;83.61
58018;BME280;43810;50.860;19.226;2023-04-01T08:29:21;96915.16;;;11.01;83.33
58018;BME280;43810;50.860;19.226;2023-04-01T08:31:56;96912.53;;;11.08;81.88
58018;BME280;43810;50.860;19.226;2023-04-01T08:34:32;96914.16;;;11.20;82.20
58018;BME280;43810;50.860;19.226;2023-04-01T08:37:04;96907.38;;;11.33;81.08
58018;BME280;43810;50.860;19.226;2023-04-01T08:39:35;96905.94;;;11.49;81.44
58018;BME280;43810;50.860;19.226;2023-04-01T08:48:22;96909.09;;;11.80;77.83
58018;BME280;43810;50.860;19.226;2023-04-01T08:51:54;96903.78;;;11.83;77.73
58018;BME280;43810;50.860;19.226;2023-04-01T09:00:15;96898.13;;;12.20;76.91
58018;BME280;43810;50.860;19.226;2023-04-01T09:03:20;96912.97;;;12.36;77.67
58018;BME280;43810;50.860;19.226;2023-04-01T09:06:28;96909.19;;;12.83;76.86
58018;BME280;43810;50.860;19.226;2023-04-01T09:27:29;96902.69;;;12.13;75.78
58018;BME280;43810;50.860;19.226;2023-04-01T09:33:09;96909.06;;;11.76;78.18
58018;BME280;43810;50.860;19.226;2023-04-01T09:38:56;96912.72;;;11.40;78.64
58018;BME280;43810;50.860;19.226;2023-04-01T09:41:32;96922.81;;;11.13;79.27
58018;BME280;43810;50.860;19.226;2023-04-01T09:44:11;96923.88;;;10.98;80.89
58018;BME280;43810;50.860;19.226;2023-04-01T09:46:57;96917.25;;;10.74;82.11
58018;BME280;43810;50.860;19.226;2023-04-01T10:23:55;96916.59;;;11.57;84.12
58018;BME280;43810;50.860;19.226;2023-04-01T10:32:35;96919.03;;;12.04;81.62
58018;BME280;43810;50.860;19.226;2023-04-01T11:01:10;96906.84;;;13.13;73.25
58018;BME280;43810;50.860;19.226;2023-04-01T11:15:47;96906.47;;;12.01;81.07
58018;BME280;43810;50.860;19.226;2023-04-01T11:23:45;96900.19;;;11.40;83.51
58018;BME280;43810;50.860;19.226;2023-04-01T11:45:32;96914.75;;;10.44;87.76
58018;BME280;43810;50.860;19.226;2023-04-01T12:07:27;96924.03;;;10.24;89.76
58018;BME280;43810;50.860;19.226;2023-04-01T12:10:18;96927.91;;;10.30;89.14
58018;BME280;43810;50.860;19.226;2023-04-01T12:18:48;96926.78;;;10.82;89.80
58018;BME280;43810;50.860;19.226;2023-04-01T12:21:29;96931.50;;;11.03;88.80
58018;BME280;43810;50.860;19.226;2023-04-01T12:27:35;96930.97;;;11.41;87.96
58018;BME280;43810;50.860;19.226;2023-04-01T12:32:40;96936.66;;;11.40;85.37
58018;BME280;43810;50.860;19.226;2023-04-01T12:38:20;96941.88;;;11.22;85.28
58018;BME280;43810;50.860;19.226;2023-04-01T12:49:26;96956.50;;;10.98;86.29
58018;BME280;43810;50.860;19.226;2023-04-01T12:52:10;96953.38;;;10.86;85.65
58018;BME280;43810;50.860;19.226;2023-04-01T12:57:41;96958.00;;;10.48;86.24
58018;BME280;43810;50.860;19.226;2023-04-01T13:00:34;96973.31;;;10.21;87.10
58018;BME280;43810;50.860;19.226;2023-04-01T13:11:09;96982.69;;;9.22;88.90
58018;BME280;43810;50.860;19.226;2023-04-01T13:13:47;96989.28;;;9.31;89.54
58018;BME280;43810;50.860;19.226;2023-04-01T13:16:25;96995.88;;;9.41;89.60
58018;BME280;43810;50.860;19.226;2023-04-01T13:19:18;96986.41;;;9.44;89.82
58018;BME280;43810;50.860;19.226;2023-04-01T13:27:14;97001.44;;;9.62;89.11
58018;BME280;43810;50.860;19.226;2023-04-01T13:38:31;96999.50;;;10.63;88.39
58018;BME280;43810;50.860;19.226;2023-04-01T13:44:17;97000.59;;;10.59;87.65
58018;BME280;43810;50.860;19.226;2023-04-01T13:49:30;96992.88;;;10.43;87.39
58018;BME280;43810;50.860;19.226;2023-04-01T14:03:30;97004.59;;;10.05;88.65
58018;BME280;43810;50.860;19.226;2023-04-01T14:12:04;97022.97;;;9.87;89.77
58018;BME280;43810;50.860;19.226;2023-04-01T14:18:42;97016.47;;;10.15;89.48
58018;BME280;43810;50.860;19.226;2023-04-01T14:20:42;97018.09;;;10.26;88.68
58018;BME280;43810;50.860;19.226;2023-04-01T14:23:43;97030.66;;;10.29;88.16
58018;BME280;43810;50.860;19.226;2023-04-01T14:48:59;97034.63;;;10.87;86.87
58018;BME280;43810;50.860;19.226;2023-04-01T14:51:32;97026.25;;;10.85;86.73
58018;BME280;43810;50.860;19.226;2023-04-01T14:56:45;97038.22;;;10.64;87.03
58018;BME280;43810;50.860;19.226;2023-04-01T14:59:26;97043.13;;;10.62;87.27
58018;BME280;43810;50.860;19.226;2023-04-01T15:02:18;97042.00;;;10.63;87.74
58018;BME280;43810;50.860;19.226;2023-04-01T15:05:23;97044.97;;;10.58;87.56
58018;BME280;43810;50.860;19.226;2023-04-01T15:08:22;97040.38;;;10.52;87.80
58018;BME280;43810;50.860;19.226;2023-04-01T15:21:23;97053.00;;;10.28;89.21
58018;BME280;43810;50.860;19.226;2023-04-01T15:26:37;97069.75;;;10.32;88.75
58018;BME280;43810;50.860;19.226;2023-04-01T15:29:23;97070.53;;;10.33;89.47
58018;BME280;43810;50.860;19.226;2023-04-01T15:32:23;97071.28;;;10.33;89.57
58018;BME280;43810;50.860;19.226;2023-04-01T15:37:52;97081.50;;;10.35;89.30
58018;BME280;43810;50.860;19.226;2023-04-01T15:40:30;97080.31;;;10.29;89.75
58018;BME280;43810;50.860;19.226;2023-04-01T15:45:58;97096.59;;;10.27;90.32
58018;BME280;43810;50.860;19.226;2023-04-01T16:21:49;97140.69;;;10.05;90.20
58018;BME280;43810;50.860;19.226;2023-04-01T16:32:40;97162.38;;;9.35;89.83
58018;BME280;43810;50.860;19.226;2023-04-01T16:41:16;97163.66;;;9.45;89.44
58018;BME280;43810;50.860;19.226;2023-04-01T16:43:53;97167.16;;;9.49;89.02
58018;BME280;43810;50.860;19.226;2023-04-01T16:46:28;97177.81;;;9.53;89.11
58018;BME280;43810;50.860;19.226;2023-04-01T16:54:28;97181.28;;;9.57;89.56
58018;BME280;43810;50.860;19.226;2023-04-01T16:57:10;97190.47;;;9.63;89.11
58018;BME280;43810;50.860;19.226;2023-04-01T17:02:47;97196.94;;;9.65;88.55
58018;BME280;43810;50.860;19.226;2023-04-01T17:05:15;97198.78;;;9.61;88.89
58018;BME280;43810;50.860;19.226;2023-04-01T17:07:48;97201.28;;;9.54;88.97
58018;BME280;43810;50.860;19.226;2023-04-01T17:19:05;97213.75;;;9.50;89.54
58018;BME280;43810;50.860;19.226;2023-04-01T17:35:33;97236.34;;;9.67;89.12
58018;BME280;43810;50.860;19.226;2023-04-01T17:38:17;97241.38;;;9.72;88.90
58018;BME280;43810;50.860;19.226;2023-04-01T17:41:01;97236.34;;;9.67;88.92
58018;BME280;43810;50.860;19.226;2023-04-01T17:46:56;97242.78;;;9.66;88.88
58018;BME280;43810;50.860;19.226;2023-04-01T17:49:25;97246.03;;;9.56;89.18
58018;BME280;43810;50.860;19.226;2023-04-01T17:57:27;97267.47;;;9.47;89.93
58018;BME280;43810;50.860;19.226;2023-04-01T18:06:19;97275.84;;;9.49;89.36
58018;BME280;43810;50.860;19.226;2023-04-01T18:09:00;97293.50;;;9.42;89.25
58018;BME280;43810;50.860;19.226;2023-04-01T18:14:50;97300.31;;;9.23;90.08
58018;BME280;43810;50.860;19.226;2023-04-01T18:17:41;97292.72;;;9.22;90.15
58018;BME280;43810;50.860;19.226;2023-04-01T18:25:52;97301.72;;;9.17;90.48
58018;BME280;43810;50.860;19.226;2023-04-01T18:28:59;97316.50;;;9.18;90.22
58018;BME280;43810;50.860;19.226;2023-04-01T18:31:42;97317.75;;;9.24;89.88
58018;BME280;43810;50.860;19.226;2023-04-01T18:37:01;97323.69;;;9.18;89.79
58018;BME280;43810;50.860;19.226;2023-04-01T18:39:53;97325.41;;;9.10;89.64
58018;BME280;43810;50.860;19.226;2023-04-01T18:45:35;97332.59;;;9.10;90.28
58018;BME280;43810;50.860;19.226;2023-04-01T18:51:33;97344.38;;;9.12;90.57
58018;BME280;43810;50.860;19.226;2023-04-01T18:53:58;97344.81;;;9.14;90.63
58018;BME280;43810;50.860;19.226;2023-04-01T18:56:34;97346.78;;;9.17;90.06
58018;BME280;43810;50.860;19.226;2023-04-01T18:59:36;97349.34;;;9.14;90.04
58018;BME280;43810;50.860;19.226;2023-04-01T19:02:34;97349.94;;;8.88;90.39
58018;BME280;43810;50.860;19.226;2023-04-01T19:16:04;97368.91;;;8.90;91.21
58018;BME280;43810;50.860;19.226;2023-04-01T19:21:21;97369.97;;;9.05;90.84
58018;BME280;43810;50.860;19.226;2023-04-01T19:26:46;97378.41;;;9.10;89.84
58018;BME280;43810;50.860;19.226;2023-04-01T19:37:57;97397.38;;;8.61;91.47
58018;BME280;43810;50.860;19.226;2023-04-01T19:46:25;97396.88;;;8.40;92.67
58018;BME280;43810;50.860;19.226;2023-04-01T19:48:57;97410.97;;;8.44;92.48
58018;BME280;43810;50.860;19.226;2023-04-01T19:54:21;97413.38;;;8.49;91.96
58018;BME280;43810;50.860;19.226;2023-04-01T20:02:52;97428.16;;;8.35;92.32
58018;BME280;43810;50.860;19.226;2023-04-01T20:08:22;97433.44;;;8.50;91.93
58018;BME280;43810;50.860;19.226;2023-04-01T20:25:26;97439.84;;;8.34;91.53
58018;BME280;43810;50.860;19.226;2023-04-01T20:28:04;97437.44;;;8.28;92.39
58018;BME280;43810;50.860;19.226;2023-04-01T20:31:16;97441.72;;;8.33;92.51
58018;BME280;43810;50.860;19.226;2023-04-01T20:34:12;97445.63;;;8.23;92.55
58018;BME280;43810;50.860;19.226;2023-04-01T20:39:34;97444.53;;;8.24;92.67
58018;BME280;43810;50.860;19.226;2023-04-01T20:45:14;97458.63;;;8.44;92.37
58018;BME280;43810;50.860;19.226;2023-04-01T20:50:24;97461.25;;;8.28;92.06
58018;BME280;43810;50.860;19.226;2023-04-01T20:53:05;97460.66;;;8.35;92.21
58018;BME280;43810;50.860;19.226;2023-04-01T21:01:03;97475.81;;;8.07;92.63
58018;BME280;43810;50.860;19.226;2023-04-01T21:15:47;97480.97;;;7.87;94.41
58018;BME280;43810;50.860;19.226;2023-04-01T21:35:10;97504.09;;;7.90;92.89
58018;BME280;43810;50.860;19.226;2023-04-01T21:38:01;97500.91;;;7.85;93.46
58018;BME280;43810;50.860;19.226;2023-04-01T21:51:25;97505.88;;;7.86;93.56
58018;BME280;43810;50.860;19.226;2023-04-01T21:57:12;97518.59;;;7.97;93.45
58018;BME280;43810;50.860;19.226;2023-04-01T22:00:12;97518.09;;;7.91;92.96
58018;BME280;43810;50.860;19.226;2023-04-01T22:14:16;97529.91;;;7.69;94.13
58018;BME280;43810;50.860;19.226;2023-04-01T22:20:22;97537.41;;;7.79;93.83
58018;BME280;43810;50.860;19.226;2023-04-01T22:28:17;97545.44;;;7.71;93.63
58018;BME280;43810;50.860;19.226;2023-04-01T22:30:57;97544.13;;;7.77;93.70
58018;BME280;43810;50.860;19.226;2023-04-01T22:44:42;97549.41;;;7.77;93.05
58018;BME280;43810;50.860;19.226;2023-04-01T22:50:11;97557.66;;;7.87;92.82
58018;BME280;43810;50.860;19.226;2023-04-01T22:52:46;97570.09;;;7.87;92.77
58018;BME280;43810;50.860;19.226;2023-04-01T22:55:15;97556.03;;;8.11;92.20
58018;BME280;43810;50.860;19.226;2023-04-01T22:58:30;97561.63;;;7.81;92.15
58018;BME280;43810;50.860;19.226;2023-04-01T23:05:54;97566.91;;;7.81;92.24
58018;BME280;43810;50.860;19.226;2023-04-01T23:13:45;97568.13;;;7.84;91.88
58018;BME280;43810;50.860;19.226;2023-04-01T23:16:14;97574.84;;;7.69;92.46
58018;BME280;43810;50.860;19.226;2023-04-01T23:21:59;97583.94;;;7.56;93.42
58018;BME280;43810;50.860;19.226;2023-04-01T23:24:42;97575.66;;;7.58;93.29
58018;BME280;43810;50.860;19.226;2023-04-01T23:27:59;97581.38;;;7.47;93.42
58018;BME280;43810;50.860;19.226;2023-04-01T23:38:36;97582.38;;;7.55;92.63
58018;BME280;43810;50.860;19.226;2023-04-01T23:41:03;97590.19;;;7.39;92.83
58018;BME280;43810;50.860;19.226;2023-04-01T23:43:32;97592.06;;;7.27;93.25
58018;BME280;43810;50.860;19.226;2023-04-01T23:46:02;97584.91;;;7.15;93.75
58018;BME280;43810;50.860;19.226;2023-04-01T23:48:43;97588.31;;;7.03;94.22
58018;BME280;43810;50.860;19.226;2023-04-01T23:51:26;97589.88;;;7.16;93.98
58018;BME280;43810;50.860;19.226;2023-04-01T23:54:00;97590.31;;;7.18;93.93
58018;BME280;43810;50.860;19.226;2023-04-01T23:56:47;97601.75;;;7.23;93.96
58018;BME280;43810;50.860;19.226;2023-04-01T23:59:19;97604.72;;;7.21;93.74
